Terminal Aerodrome Forecast
Issued by NWS

Current Version | Previous Version | Text Only | Print | Product List | Glossary On
Versions: 1 2 3 4 5 6 7 8 9 10 11 12 13 14 15 16 17 18 19 20 21 22 23 24 25 26 27 28 29 30 31
247
FTUS41 KOKX 181445 AAB
TAFGON
TAF AMD
KGON 181445Z 1815/1912 VRB05KT P6SM SCT170 BKN220
     FM181700 20007KT P6SM SCT150 BKN200
     FM181800 20012G18KT P6SM SCT100 BKN150
     FM182000 21015G25KT P6SM VCSH SCT050 BKN100
     FM190400 21020G32KT 6SM -SHRA BR SCT015 BKN025 OVC050
     FM191000 21022G35KT 3SM SHRA BR SCT007 BKN015 OVC035=

USA.gov is the U.S. government's official web portal to all federal, state and local government web resources and services.